Terminal Aerodrome Forecast
Issued by NWS Cleveland, OH

Home | Current Version | Previous Version | Text Only | Print | Product List | Glossary On
Versions: 1 2 3 4 5 6 7 8 9 10 11 12 13 14 15 16 17 18 19 20 21
322
FTUS41 KCLE 170420 AAB
TAFCAK
TAF AMD
KCAK 170420Z 1704/1724 15006KT 5SM BR VCSH SCT006 OVC012
      TEMPO 1705/1709 2SM -RA BR OVC006
     FM170900 18010KT 1SM -RA BR OVC003
     FM171800 24014KT 4SM BR VCSH BKN006 OVC012=

USA.gov is the U.S. government's official web portal to all federal, state and local government web resources and services.